TNCA/AUA METAR and TAF weather

Enter ICAO airport designator
Station Type Date Time Source
TNCA METAR 2020/07/02 17:00 UTC NOAA

TNCA 021700Z 11020KT 9999 BKN019 32/24 Q1011 NOSIG


Station Type Date Time Source
TNCA Decoded METAR 2020/07/02 17:00 UTC NOAA

Queen Beatrix Airport, Aruba (TNCA) 12-30N 070-01W 33M
Jul 02, 2020 - 01:00 PM EDT / 2020.07.02 1700 UTC
Wind: from the ESE (110 degrees) at 23 MPH (20 KT):0
Visibility: greater than 7 mile(s):0
Sky conditions: mostly cloudy
Temperature: 89 F (32 C)
Heat index: 98.4 F (36.9 C):1
Dew Point: 75 F (24 C)
Relative Humidity: 62%
Pressure (altimeter): 29.85 in. Hg (1011 hPa)
ob: TNCA 021700Z 11020KT 9999 BKN019 32/24 Q1011 NOSIG
cycle: 17

Station Type Date Time Source
TNCA TAF 2020/07/02 18:04 UTC NOAA

TAF TNCA 021715Z 0218/0318 10020KT 9999 SCT022
TEMPO 0218/0318 10021G32KT

Example: see airport list